Main page
METAR-TAF:

METAR-TAF

Airports :

Zadar, Croatia

Zadar Airport

latitude: 44-06N, longitude: 015-21E, elevation: 82 m

Current weather observation

The report was made 37 minutes ago, at 19:00 UTC
Wind 4 kt from the Northwest
Temperature 21°C
Humidity 43%
Pressure 1017 hPa
Visibility 10 km or more
no clouds below 1500 m and no cumulonimbus

METAR: LDZD 231900Z 31004KT CAVOK 21/08 Q1017 NOSIG

Time: 21:37 (19:37 UTC)

Forecast

The report was made 2 hours and 12 minutes ago, at 17:25 UTC
Forecast valid from 23 at 18 UTC to 24 at 18 UTC
Wind 10 kt from the Northwest
Visibility 10 km or more
no clouds below 1500 m and no cumulonimbus
Becoming
from 23 at 18 UTC to 23 at 20 UTC
Wind 2 kt from variable directions
Becoming
from 24 at 10 UTC to 24 at 12 UTC
Wind 10 kt from the West/Northwest

TAF: LDZD 231725Z 2318/2418 31010KT CAVOK TX30/2412Z TN13/2404Z BECMG 2318/2320 VRB02KT BECMG 2410/2412 30010KT

Weather observations and forecasts of more than 4000 airports (METAR and TAF reports).

The available stations are represented by yellow and red dots on the map.

Hover mouse over dot to see the name of the station.

Then click to see weather observations and forecasts.

To change the map : click on the green buttons with a black cross to zoom in, on the green button with a dash to zoom out, or on the green arrows for adjacent maps.


METAR-TAF: